Time;durP1;ratioP1;P1;durP2;ratioP2;P2;SDS_P1;SDS_P2;PMS_P1;PMS_P2;Temp;Humidity;BMP_temperature;BMP_pressure;BME280_temperature;BME280_humidity;BME280_pressure;Samples;Min_cycle;Max_cycle;Signal;HPM_P1;HPM_P2
2021/06/24 00:00:48;;;;;;;8.40;7.60;;;16.60;99.90;;;;;;5067533;28;20616;-71
2021/06/24 00:03:14;;;;;;;7.87;7.07;;;16.60;99.90;;;;;;5067772;28;20285;-71
2021/06/24 00:05:41;;;;;;;8.90;7.27;;;16.50;99.90;;;;;;5038047;28;20349;-69
2021/06/24 00:08:09;;;;;;;8.17;7.37;;;16.50;99.90;;;;;;5067432;28;20181;-70
2021/06/24 00:10:37;;;;;;;8.40;7.50;;;16.50;99.90;;;;;;5067687;28;20467;-70
2021/06/24 00:13:03;;;;;;;18.30;8.00;;;16.40;99.90;;;;;;5066456;28;20196;-71
2021/06/24 00:15:29;;;;;;;9.23;7.87;;;16.50;99.90;;;;;;5066448;28;20185;-71
2021/06/24 00:17:54;;;;;;;9.03;7.47;;;16.40;99.90;;;;;;5067105;28;20432;-71
2021/06/24 00:20:20;;;;;;;9.53;8.50;;;16.40;99.90;;;;;;5067517;28;20173;-71
2021/06/24 00:22:45;;;;;;;9.20;7.90;;;16.40;99.90;;;;;;5066915;28;20609;-71
2021/06/24 00:25:12;;;;;;;9.53;8.07;;;16.40;99.90;;;;;;5077038;28;20207;-70
2021/06/24 00:27:37;;;;;;;8.93;7.53;;;16.40;99.90;;;;;;5055903;28;20192;-71
2021/06/24 00:30:05;;;;;;;8.90;8.07;;;16.40;99.90;;;;;;5047316;28;20194;-72
2021/06/24 00:32:32;;;;;;;8.33;7.17;;;16.40;99.90;;;;;;5047158;28;20166;-71
2021/06/24 00:35:01;;;;;;;8.30;7.50;;;16.40;99.90;;;;;;5046823;28;20208;-69
2021/06/24 00:37:30;;;;;;;9.37;7.97;;;16.40;99.90;;;;;;5059591;28;20177;-69
2021/06/24 00:39:57;;;;;;;8.43;7.57;;;16.30;99.90;;;;;;5067216;28;20660;-69
2021/06/24 00:42:24;;;;;;;9.43;8.30;;;16.20;99.90;;;;;;5048841;28;20178;-69
2021/06/24 00:44:50;;;;;;;9.30;8.37;;;16.10;99.90;;;;;;5036167;28;20309;-70
2021/06/24 00:47:16;;;;;;;9.37;8.50;;;16.00;99.90;;;;;;5036046;28;20218;-70
2021/06/24 00:49:41;;;;;;;10.50;8.37;;;16.00;99.90;;;;;;5034138;28;20202;-71
2021/06/24 00:52:07;;;;;;;10.37;9.13;;;16.00;99.90;;;;;;5034009;28;20175;-71
2021/06/24 00:54:33;;;;;;;9.33;8.53;;;16.10;99.90;;;;;;5033529;28;20186;-70
2021/06/24 00:56:59;;;;;;;10.50;9.47;;;16.10;99.90;;;;;;5033752;28;20224;-72
2021/06/24 00:59:25;;;;;;;9.97;8.80;;;16.00;99.90;;;;;;5033319;28;20183;-70
2021/06/24 01:01:51;;;;;;;10.87;9.27;;;16.00;99.90;;;;;;5047071;28;20180;-71
2021/06/24 01:04:22;;;;;;;9.67;8.30;;;15.90;99.90;;;;;;5052764;28;20542;-70
2021/06/24 01:06:51;;;;;;;9.47;8.67;;;15.80;99.90;;;;;;5053023;28;20174;-70
2021/06/24 01:09:18;;;;;;;12.33;9.13;;;15.70;99.90;;;;;;5052760;28;20162;-70
2021/06/24 01:11:44;;;;;;;9.57;8.70;;;15.80;99.90;;;;;;5034674;28;20212;-69
2021/06/24 01:14:10;;;;;;;9.57;8.67;;;15.80;99.90;;;;;;5052772;28;20194;-70
2021/06/24 01:16:37;;;;;;;10.03;9.00;;;15.80;99.90;;;;;;5051050;28;20182;-70
2021/06/24 01:19:03;;;;;;;9.87;8.87;;;15.90;99.90;;;;;;5052706;28;20205;-70
2021/06/24 01:21:29;;;;;;;10.67;9.47;;;15.90;99.90;;;;;;5052539;28;20200;-69
2021/06/24 01:23:55;;;;;;;10.57;9.50;;;15.90;99.90;;;;;;5052966;28;20699;-71
2021/06/24 01:26:21;;;;;;;9.87;8.47;;;15.90;99.90;;;;;;5052885;28;20201;-70
2021/06/24 01:28:47;;;;;;;9.57;7.90;;;15.90;99.90;;;;;;5052690;28;20170;-69
2021/06/24 01:31:14;;;;;;;10.20;8.43;;;15.90;99.90;;;;;;5052302;28;20205;-71
2021/06/24 01:33:39;;;;;;;9.43;8.47;;;15.90;99.90;;;;;;5049067;28;20202;-70
2021/06/24 01:36:06;;;;;;;10.10;8.67;;;15.90;99.90;;;;;;5052630;28;20682;-69
2021/06/24 01:38:33;;;;;;;10.20;8.40;;;15.90;99.90;;;;;;5052498;28;20169;-69
2021/06/24 01:40:59;;;;;;;11.73;8.33;;;15.90;99.90;;;;;;5053048;28;20200;-69
2021/06/24 01:43:26;;;;;;;10.00;8.50;;;15.90;99.90;;;;;;5052537;28;20347;-70
2021/06/24 01:45:54;;;;;;;9.90;8.83;;;15.80;99.90;;;;;;5052313;28;20185;-70
2021/06/24 01:48:21;;;;;;;10.37;9.37;;;15.80;99.90;;;;;;5050133;28;20189;-69
2021/06/24 01:50:47;;;;;;;10.13;9.10;;;15.80;99.90;;;;;;5052336;28;20427;-69
2021/06/24 01:53:13;;;;;;;10.20;9.20;;;15.80;99.90;;;;;;5051120;28;20252;-70
2021/06/24 01:55:40;;;;;;;12.70;9.03;;;15.80;99.90;;;;;;5052085;28;20186;-69
2021/06/24 01:58:08;;;;;;;11.20;10.00;;;15.70;99.90;;;;;;5052241;28;20178;-69
2021/06/24 02:00:34;;;;;;;9.80;8.80;;;15.80;99.90;;;;;;5051743;28;20248;-69
2021/06/24 02:03:01;;;;;;;10.97;9.27;;;15.70;99.90;;;;;;5052086;28;20236;-69
2021/06/24 02:05:26;;;;;;;12.03;9.87;;;15.70;99.90;;;;;;5049707;28;20190;-69
2021/06/24 02:07:52;;;;;;;9.67;8.87;;;15.80;99.90;;;;;;5052162;28;20207;-69
2021/06/24 02:10:18;;;;;;;12.23;9.20;;;15.80;99.90;;;;;;5051885;28;20198;-70
2021/06/24 02:12:43;;;;;;;10.90;9.80;;;15.80;99.90;;;;;;5051742;28;20454;-69
2021/06/24 02:15:12;;;;;;;13.17;9.70;;;15.80;99.90;;;;;;5052268;28;20191;-69
2021/06/24 02:17:38;;;;;;;11.40;9.30;;;15.80;99.90;;;;;;5051745;28;20170;-70
2021/06/24 02:20:10;;;;;;;9.73;8.83;;;15.80;99.90;;;;;;5048318;28;20174;-69
2021/06/24 02:22:36;;;;;;;11.13;8.60;;;15.80;99.90;;;;;;5052665;28;20184;-70
2021/06/24 02:25:04;;;;;;;13.13;11.10;;;15.80;99.90;;;;;;5053827;28;20611;-69
2021/06/24 02:27:29;;;;;;;10.67;9.50;;;15.80;99.90;;;;;;5052941;28;20271;-69
2021/06/24 02:29:55;;;;;;;13.23;10.53;;;15.80;99.90;;;;;;5052022;28;20335;-70
2021/06/24 02:32:20;;;;;;;13.43;9.80;;;15.80;99.90;;;;;;5056884;28;20166;-70
2021/06/24 02:34:47;;;;;;;10.70;9.70;;;15.90;99.90;;;;;;5056407;28;20195;-69
2021/06/24 02:37:13;;;;;;;12.93;10.23;;;15.80;99.90;;;;;;5055205;28;20194;-69
2021/06/24 02:39:39;;;;;;;11.60;9.70;;;15.80;99.90;;;;;;5054050;28;20225;-70
2021/06/24 02:42:05;;;;;;;13.63;10.43;;;15.80;99.90;;;;;;5051017;28;20185;-70
2021/06/24 02:44:30;;;;;;;11.07;9.80;;;15.90;99.90;;;;;;5051560;28;20304;-70
2021/06/24 02:46:56;;;;;;;10.73;9.67;;;15.80;99.90;;;;;;5051429;28;20174;-70
2021/06/24 02:49:21;;;;;;;11.10;9.93;;;15.80;99.90;;;;;;5051145;28;20273;-70
2021/06/24 02:51:47;;;;;;;15.60;10.97;;;15.90;99.90;;;;;;5048182;28;20241;-70
2021/06/24 02:54:17;;;;;;;11.30;10.13;;;15.80;99.90;;;;;;5051417;28;20208;-70
2021/06/24 02:56:43;;;;;;;11.87;9.77;;;15.90;99.90;;;;;;5050981;28;20180;-70
2021/06/24 02:59:09;;;;;;;11.80;10.60;;;15.90;99.90;;;;;;5033048;28;20196;-69
2021/06/24 03:01:36;;;;;;;13.80;10.87;;;15.90;99.90;;;;;;5050536;28;20658;-70
2021/06/24 03:04:03;;;;;;;11.83;10.60;;;15.80;99.90;;;;;;5050620;28;20190;-70
2021/06/24 03:06:29;;;;;;;13.10;10.37;;;15.80;99.90;;;;;;5051322;28;20174;-71
2021/06/24 03:08:54;;;;;;;12.87;10.83;;;15.80;99.90;;;;;;5057717;28;20186;-70
2021/06/24 03:11:20;;;;;;;12.90;11.57;;;15.80;99.90;;;;;;5057357;28;20211;-70
2021/06/24 03:13:49;;;;;;;14.23;12.17;;;15.80;99.90;;;;;;5050771;28;20209;-70
2021/06/24 03:16:15;;;;;;;11.80;10.60;;;15.80;99.90;;;;;;5051010;28;20223;-70
2021/06/24 03:18:40;;;;;;;14.30;10.17;;;15.80;99.90;;;;;;5050908;28;20181;-70
2021/06/24 03:21:06;;;;;;;13.47;10.97;;;15.80;99.90;;;;;;5050516;28;20261;-69
2021/06/24 03:23:32;;;;;;;12.67;10.73;;;15.80;99.90;;;;;;5048179;28;20697;-69
2021/06/24 03:25:57;;;;;;;14.87;10.90;;;15.80;99.90;;;;;;5050526;28;20196;-69
2021/06/24 03:28:23;;;;;;;13.67;10.30;;;15.80;99.90;;;;;;5048638;28;20558;-69
2021/06/24 03:30:48;;;;;;;17.40;10.37;;;15.80;99.90;;;;;;5050225;28;20642;-70
2021/06/24 03:33:14;;;;;;;14.17;10.17;;;15.70;99.90;;;;;;5032616;28;20650;-70
2021/06/24 03:35:40;;;;;;;15.30;10.57;;;15.70;99.90;;;;;;5051974;28;20180;-69
2021/06/24 03:38:05;;;;;;;11.60;9.80;;;15.70;99.90;;;;;;5052273;28;20176;-71
2021/06/24 03:40:31;;;;;;;10.33;9.27;;;15.90;99.90;;;;;;5048243;28;20189;-71
2021/06/24 03:42:56;;;;;;;14.70;10.17;;;16.30;99.90;;;;;;5050677;28;20173;-70
2021/06/24 03:45:22;;;;;;;11.10;9.87;;;16.60;99.90;;;;;;5050616;28;20222;-70
2021/06/24 03:47:48;;;;;;;10.80;9.70;;;16.90;99.90;;;;;;5050424;28;20169;-70
2021/06/24 03:50:14;;;;;;;10.97;8.80;;;17.10;99.90;;;;;;5050641;28;20319;-70
2021/06/24 03:52:41;;;;;;;11.90;9.80;;;17.50;99.90;;;;;;5050362;28;20174;-70
2021/06/24 03:55:08;;;;;;;12.43;9.43;;;17.80;99.90;;;;;;5047841;28;20673;-69
2021/06/24 03:57:34;;;;;;;13.90;8.77;;;18.10;99.90;;;;;;5050316;28;20170;-69
2021/06/24 04:00:00;;;;;;;10.67;9.57;;;18.70;99.90;;;;;;5050412;28;20174;-69
2021/06/24 04:02:25;;;;;;;11.43;9.87;;;19.00;99.90;;;;;;5050197;28;20173;-69
2021/06/24 04:04:52;;;;;;;11.40;9.37;;;19.10;99.90;;;;;;5050306;28;20185;-69
2021/06/24 04:07:19;;;;;;;11.87;9.40;;;19.30;99.90;;;;;;5050389;28;20174;-69
2021/06/24 04:09:44;;;;;;;12.13;9.37;;;19.50;99.90;;;;;;5050338;28;20200;-69
2021/06/24 04:12:10;;;;;;;9.77;8.80;;;19.80;99.90;;;;;;5046395;28;20268;-70
2021/06/24 04:14:35;;;;;;;13.27;10.07;;;19.90;99.90;;;;;;5050225;28;20619;-69
2021/06/24 04:17:01;;;;;;;11.33;9.87;;;19.80;99.90;;;;;;5051815;28;20257;-70
2021/06/24 04:19:27;;;;;;;11.50;9.13;;;19.40;99.90;;;;;;5053905;28;20177;-69
2021/06/24 04:21:52;;;;;;;11.27;9.10;;;18.80;99.90;;;;;;5053796;28;20546;-70
2021/06/24 04:24:18;;;;;;;13.03;9.57;;;18.40;99.90;;;;;;5054037;28;20735;-69
2021/06/24 04:26:43;;;;;;;14.00;9.93;;;18.10;99.90;;;;;;5052695;28;20178;-69
2021/06/24 04:29:09;;;;;;;12.97;9.13;;;17.90;99.90;;;;;;5053579;28;20230;-70
2021/06/24 04:31:35;;;;;;;14.27;9.40;;;17.80;99.90;;;;;;5053933;28;20177;-69
2021/06/24 04:34:01;;;;;;;12.37;10.13;;;17.70;99.90;;;;;;5053554;28;20193;-69
2021/06/24 04:36:26;;;;;;;14.07;10.63;;;17.60;99.90;;;;;;5053995;28;20169;-70
2021/06/24 04:38:52;;;;;;;10.63;9.47;;;17.50;99.90;;;;;;5053578;28;20308;-70
2021/06/24 04:41:18;;;;;;;11.50;10.13;;;17.50;99.90;;;;;;5053385;28;20169;-70
2021/06/24 04:43:43;;;;;;;14.73;10.47;;;17.40;99.90;;;;;;5051711;28;20278;-70
2021/06/24 04:46:09;;;;;;;13.07;9.67;;;17.50;99.90;;;;;;5053428;28;20178;-70
2021/06/24 04:48:34;;;;;;;19.70;10.27;;;17.40;99.90;;;;;;5053239;28;20207;-70
2021/06/24 04:51:00;;;;;;;14.47;10.67;;;17.50;99.90;;;;;;5053080;28;20193;-69
2021/06/24 04:53:25;;;;;;;13.37;10.80;;;17.60;99.90;;;;;;5053308;28;20669;-69
2021/06/24 04:55:51;;;;;;;14.97;10.17;;;17.70;99.90;;;;;;5053150;28;20169;-70
2021/06/24 04:58:16;;;;;;;14.97;10.83;;;17.90;99.90;;;;;;5051856;28;20232;-69
2021/06/24 05:00:42;;;;;;;15.70;10.00;;;18.00;99.90;;;;;;5052706;28;20182;-70
2021/06/24 05:03:11;;;;;;;11.83;9.53;;;18.00;99.90;;;;;;5053332;28;20186;-71
2021/06/24 05:05:38;;;;;;;13.67;9.73;;;18.00;99.90;;;;;;5053378;28;20257;-70
2021/06/24 05:08:11;;;;;;;11.43;9.87;;;18.10;99.90;;;;;;5053530;28;20268;-70
2021/06/24 05:10:36;;;;;;;15.03;10.17;;;18.30;99.90;;;;;;5052684;28;20217;-70
2021/06/24 05:13:02;;;;;;;14.40;9.43;;;18.40;99.90;;;;;;5053090;28;20572;-70
2021/06/24 05:15:28;;;;;;;13.77;9.53;;;18.30;99.90;;;;;;5049501;28;20530;-70
2021/06/24 05:17:53;;;;;;;14.13;9.77;;;18.30;99.90;;;;;;5035076;28;20174;-70
2021/06/24 05:20:20;;;;;;;10.63;8.80;;;18.30;99.90;;;;;;5052515;28;20231;-70
2021/06/24 05:22:45;;;;;;;11.80;8.03;;;18.30;99.90;;;;;;5034646;28;20177;-70
2021/06/24 05:25:11;;;;;;;10.27;8.70;;;18.40;99.90;;;;;;5052676;28;20536;-70
2021/06/24 05:27:37;;;;;;;11.80;8.80;;;18.40;99.90;;;;;;5052622;28;20529;-71
2021/06/24 05:30:04;;;;;;;9.47;8.53;;;18.40;99.90;;;;;;5050435;28;20327;-71
2021/06/24 05:32:30;;;;;;;10.27;7.57;;;18.50;99.90;;;;;;5051985;28;20658;-71
2021/06/24 05:34:55;;;;;;;8.13;7.30;;;18.50;99.90;;;;;;5052672;28;20229;-71
2021/06/24 05:37:21;;;;;;;11.20;7.23;;;18.60;99.90;;;;;;5052570;28;20166;-71
2021/06/24 05:39:46;;;;;;;11.63;7.80;;;18.70;99.90;;;;;;5052400;28;20554;-71
2021/06/24 05:42:12;;;;;;;8.57;6.83;;;18.60;99.90;;;;;;5052008;28;20173;-71
2021/06/24 05:44:37;;;;;;;12.10;7.63;;;18.70;99.90;;;;;;5096955;22;20231;-73
2021/06/24 05:47:03;;;;;;;10.40;7.47;;;18.80;99.90;;;;;;5090482;28;20171;-73
2021/06/24 05:49:29;;;;;;;11.03;7.70;;;18.90;99.90;;;;;;5092992;28;20180;-73
2021/06/24 05:51:55;;;;;;;11.80;7.23;;;19.00;99.90;;;;;;5092486;28;20533;-75
2021/06/24 05:54:20;;;;;;;10.70;9.00;;;19.10;99.90;;;;;;5092846;28;20188;-75
2021/06/24 05:56:46;;;;;;;12.00;8.10;;;19.10;99.90;;;;;;5093130;28;20164;-75
2021/06/24 05:59:12;;;;;;;9.30;8.27;;;19.00;99.90;;;;;;5093825;28;20621;-75
2021/06/24 06:01:42;;;;;;;10.83;9.03;;;18.90;99.90;;;;;;5089146;28;20260;-75
2021/06/24 06:04:08;;;;;;;9.03;8.07;;;18.90;99.90;;;;;;5091735;28;20669;-74
2021/06/24 06:06:33;;;;;;;11.83;8.83;;;18.90;99.90;;;;;;5084471;28;20268;-75
2021/06/24 06:08:59;;;;;;;11.00;8.57;;;19.00;99.90;;;;;;5062368;28;20173;-75
2021/06/24 06:11:25;;;;;;;10.40;7.63;;;19.10;99.90;;;;;;5053912;28;20239;-75
2021/06/24 06:13:50;;;;;;;9.37;8.47;;;19.20;99.90;;;;;;5068981;28;20193;-74
2021/06/24 06:16:16;;;;;;;9.83;8.30;;;19.30;99.90;;;;;;5073848;28;20210;-74
2021/06/24 06:18:41;;;;;;;8.47;7.53;;;19.30;99.90;;;;;;5078922;28;20176;-74
2021/06/24 06:21:07;;;;;;;11.47;8.00;;;19.20;99.90;;;;;;5093523;28;20168;-74
2021/06/24 06:23:33;;;;;;;10.27;8.27;;;19.30;99.90;;;;;;5087814;28;20204;-75
2021/06/24 06:25:58;;;;;;;8.13;7.33;;;19.40;99.90;;;;;;5071411;28;20177;-75
2021/06/24 06:28:25;;;;;;;7.67;6.97;;;19.20;99.90;;;;;;5071701;28;20185;-75
2021/06/24 06:30:54;;;;;;;9.33;8.33;;;19.30;99.90;;;;;;5071858;28;20232;-74
2021/06/24 06:33:20;;;;;;;10.33;9.07;;;19.40;99.90;;;;;;5070861;28;20181;-75
2021/06/24 06:35:47;;;;;;;9.97;8.60;;;19.60;99.90;;;;;;5089100;28;20286;-75
2021/06/24 06:38:13;;;;;;;10.40;9.03;;;19.70;99.90;;;;;;5092329;28;20172;-75
2021/06/24 06:40:39;;;;;;;11.17;8.77;;;19.80;99.90;;;;;;5091690;28;20194;-75
2021/06/24 06:43:05;;;;;;;9.67;7.97;;;20.00;99.90;;;;;;5093528;28;20692;-75
2021/06/24 06:45:33;;;;;;;8.63;7.70;;;20.00;99.90;;;;;;5092493;28;20696;-75
2021/06/24 06:47:58;;;;;;;10.30;8.57;;;20.00;99.90;;;;;;5083066;28;20264;-73
2021/06/24 06:50:24;;;;;;;10.67;8.00;;;20.30;99.90;;;;;;5075449;28;20744;-75
2021/06/24 06:52:50;;;;;;;7.73;6.90;;;20.50;99.90;;;;;;5092287;28;20655;-74
2021/06/24 06:55:15;;;;;;;9.47;7.00;;;20.60;99.90;;;;;;5091137;28;20200;-74
2021/06/24 06:57:41;;;;;;;8.03;6.10;;;20.70;99.90;;;;;;5095382;28;20166;-75
2021/06/24 07:00:09;;;;;;;9.20;6.67;;;20.70;99.90;;;;;;5097063;28;20172;-75
2021/06/24 07:02:34;;;;;;;10.13;6.47;;;21.00;99.90;;;;;;5096412;28;20222;-75
2021/06/24 07:05:00;;;;;;;6.70;5.87;;;21.30;99.90;;;;;;5097000;28;20194;-75
2021/06/24 07:07:26;;;;;;;10.93;6.90;;;21.40;99.90;;;;;;5097241;28;20176;-76
2021/06/24 07:09:53;;;;;;;7.03;5.90;;;21.50;99.90;;;;;;5096853;28;20226;-76
2021/06/24 07:12:18;;;;;;;6.73;6.03;;;21.40;99.90;;;;;;5097155;28;20368;-75
2021/06/24 07:14:44;;;;;;;6.90;5.93;;;21.70;99.90;;;;;;5097270;28;20193;-75
2021/06/24 07:17:09;;;;;;;7.30;6.53;;;21.90;99.90;;;;;;5097260;28;20798;-75
2021/06/24 07:19:35;;;;;;;7.63;6.57;;;22.00;99.90;;;;;;5078626;28;20178;-75
2021/06/24 07:22:00;;;;;;;8.43;6.80;;;22.30;99.90;;;;;;5072868;28;20186;-75
2021/06/24 07:24:26;;;;;;;8.13;7.30;;;22.10;99.90;;;;;;5076282;28;20192;-76
2021/06/24 07:26:51;;;;;;;6.55;5.95;;;22.40;99.90;;;;;;5039114;28;20263;-76
2021/06/24 07:29:17;;;;;;;8.48;6.82;;;22.30;99.90;;;;;;5056672;28;20176;-75
2021/06/24 07:31:43;;;;;;;5.07;4.57;;;22.40;99.90;;;;;;5039119;28;20202;-75
2021/06/24 07:34:08;;;;;;;6.13;5.28;;;22.40;99.90;;;;;;5057160;28;20255;-75
2021/06/24 07:36:34;;;;;;;6.70;5.15;;;22.50;99.90;;;;;;5056930;28;20583;-75
2021/06/24 07:38:59;;;;;;;7.13;5.28;;;22.50;99.90;;;;;;5077494;28;20171;-76
2021/06/24 07:41:25;;;;;;;7.88;5.40;;;22.30;99.90;;;;;;5076479;28;20175;-75
2021/06/24 07:43:52;;;;;;;11.38;6.75;;;22.40;99.90;;;;;;5074589;28;20215;-75
2021/06/24 07:46:18;;;;;;;8.48;4.95;;;22.30;99.90;;;;;;5069297;28;20639;-75
2021/06/24 07:48:44;;;;;;;6.63;4.50;;;22.50;99.90;;;;;;5058427;28;20257;-75
2021/06/24 07:51:09;;;;;;;5.07;4.50;;;22.80;99.90;;;;;;5066841;28;20241;-75
2021/06/24 07:53:41;;;;;;;6.20;5.40;;;22.90;99.90;;;;;;5080415;28;20248;-75
2021/06/24 07:56:07;;;;;;;8.02;5.60;;;22.70;99.90;;;;;;5080797;28;20162;-75
2021/06/24 07:58:33;;;;;;;6.65;6.05;;;22.40;99.90;;;;;;5082375;28;20178;-76
2021/06/24 08:00:58;;;;;;;6.13;5.40;;;22.30;99.90;;;;;;5080500;28;20184;-77
2021/06/24 08:03:24;;;;;;;6.03;4.90;;;22.50;99.90;;;;;;5063632;28;20261;-76
2021/06/24 08:05:49;;;;;;;6.68;5.20;;;22.50;99.90;;;;;;5081992;28;20180;-76
2021/06/24 08:08:15;;;;;;;5.50;4.73;;;22.30;99.90;;;;;;5035664;28;20716;-77
2021/06/24 08:10:40;;;;;;;6.55;5.80;;;22.10;99.90;;;;;;5062311;28;20194;-76
2021/06/24 08:13:06;;;;;;;6.22;4.80;;;22.20;99.90;;;;;;5076933;28;20202;-78
2021/06/24 08:15:31;;;;;;;8.63;5.33;;;21.80;99.90;;;;;;5079165;28;20179;-70
2021/06/24 08:17:57;;;;;;;7.03;4.73;;;21.90;99.90;;;;;;5080200;28;20187;-72
2021/06/24 08:20:23;;;;;;;6.43;4.63;;;22.00;99.90;;;;;;5094403;28;20174;-70
2021/06/24 08:22:50;;;;;;;8.27;5.30;;;21.90;99.90;;;;;;5103303;28;20205;-71
2021/06/24 08:25:15;;;;;;;6.38;4.60;;;22.10;99.90;;;;;;5098870;28;20252;-72
2021/06/24 08:27:41;;;;;;;6.68;5.40;;;22.20;99.90;;;;;;5087702;28;20159;-73
2021/06/24 08:30:08;;;;;;;6.50;5.57;;;22.20;99.90;;;;;;5077363;28;20203;-74
2021/06/24 08:32:34;;;;;;;6.88;5.00;;;22.00;99.90;;;;;;5053983;28;20158;-74
2021/06/24 08:35:00;;;;;;;6.57;5.73;;;22.00;99.90;;;;;;5070887;28;20200;-74
2021/06/24 08:37:26;;;;;;;7.15;4.93;;;22.00;99.90;;;;;;5072060;28;20171;-74
2021/06/24 08:39:51;;;;;;;5.65;5.15;;;22.00;99.90;;;;;;5063266;28;20184;-74
2021/06/24 08:42:17;;;;;;;6.20;5.60;;;22.00;99.90;;;;;;5053708;28;20674;-74
2021/06/24 08:44:46;;;;;;;7.60;5.65;;;22.10;99.90;;;;;;5054254;28;20276;-74
2021/06/24 08:47:16;;;;;;;7.95;4.90;;;22.10;99.90;;;;;;5055419;28;20666;-74
2021/06/24 08:49:42;;;;;;;9.35;5.93;;;22.10;99.90;;;;;;5067335;28;20204;-76
2021/06/24 08:52:10;;;;;;;10.25;6.35;;;22.20;99.90;;;;;;5073747;28;20176;-74
2021/06/24 08:54:36;;;;;;;6.85;6.10;;;22.30;99.90;;;;;;5073752;28;20246;-74
2021/06/24 08:57:02;;;;;;;9.40;7.68;;;22.30;99.90;;;;;;5066745;28;20256;-77
2021/06/24 08:59:27;;;;;;;8.88;7.50;;;22.20;99.90;;;;;;5068442;28;20623;-75
2021/06/24 09:01:55;;;;;;;8.37;7.50;;;22.10;99.90;;;;;;5064616;28;20191;-75
2021/06/24 09:04:48;;;;;;;9.75;7.68;;;22.30;99.90;;;;;;5067485;28;20196;-75
2021/06/24 09:07:22;;;;;;;10.63;7.65;;;22.10;99.90;;;;;;5041812;28;20328;-74
2021/06/24 09:09:53;;;;;;;10.93;8.00;;;21.80;99.90;;;;;;5073886;28;20373;-74
2021/06/24 09:12:19;;;;;;;10.88;7.75;;;22.00;99.90;;;;;;5074554;28;20340;-72
2021/06/24 09:14:50;;;;;;;9.10;8.15;;;22.10;99.90;;;;;;5073861;28;20634;-68
2021/06/24 09:17:34;;;;;;;8.90;7.35;;;21.90;99.90;;;;;;5043300;28;20287;-72
2021/06/24 09:20:00;;;;;;;6.97;6.28;;;22.10;99.90;;;;;;5052736;28;20250;-70
2021/06/24 09:22:26;;;;;;;8.70;7.80;;;22.50;99.90;;;;;;5051902;28;20459;-74
2021/06/24 09:24:51;;;;;;;8.73;7.82;;;22.20;99.90;;;;;;5053572;28;20191;-74
2021/06/24 09:27:17;;;;;;;9.00;7.05;;;22.10;99.90;;;;;;5072561;28;20236;-74
2021/06/24 09:29:48;;;;;;;8.45;6.00;;;22.20;99.90;;;;;;5070772;28;20580;-74
2021/06/24 09:32:34;;;;;;;8.52;6.90;;;22.20;99.90;;;;;;5065551;28;20182;-74
2021/06/24 09:35:02;;;;;;;7.72;6.97;;;22.40;99.90;;;;;;5052571;28;20207;-73
2021/06/24 09:37:31;;;;;;;8.02;7.22;;;22.50;99.90;;;;;;5068691;28;20172;-75
2021/06/24 09:40:10;;;;;;;7.15;6.45;;;22.50;99.90;;;;;;5072690;28;20595;-73
2021/06/24 09:42:35;;;;;;;6.97;6.28;;;22.40;99.90;;;;;;5071827;28;20178;-74
2021/06/24 09:45:07;;;;;;;10.00;6.50;;;22.60;99.90;;;;;;5073678;28;20211;-73
2021/06/24 09:47:32;;;;;;;6.63;6.07;;;22.30;99.90;;;;;;5073575;28;20253;-73
2021/06/24 09:50:05;;;;;;;6.40;5.88;;;22.00;99.90;;;;;;5073664;28;20868;-72
2021/06/24 09:52:31;;;;;;;6.50;5.88;;;22.00;99.90;;;;;;5055515;28;20276;-75
2021/06/24 09:55:15;;;;;;;6.15;5.55;;;22.10;99.90;;;;;;5072901;28;20213;-71
2021/06/24 09:57:42;;;;;;;6.68;5.25;;;21.90;99.90;;;;;;5073089;28;20171;-74
2021/06/24 10:00:27;;;;;;;7.28;4.80;;;21.60;99.90;;;;;;5072953;28;20589;-75
2021/06/24 10:03:12;;;;;;;5.90;5.25;;;21.60;99.90;;;;;;5072928;28;20166;-75
2021/06/24 10:05:40;;;;;;;7.07;5.75;;;21.80;99.90;;;;;;5072846;28;20212;-75
2021/06/24 10:08:05;;;;;;;6.07;4.22;;;22.00;99.90;;;;;;5072444;28;20651;-75
2021/06/24 10:10:31;;;;;;;7.10;3.28;;;21.80;99.90;;;;;;5072435;28;20198;-75
2021/06/24 10:12:57;;;;;;;4.78;3.47;;;21.70;99.90;;;;;;5072725;28;20175;-75
2021/06/24 10:15:24;;;;;;;5.03;4.40;;;21.90;99.90;;;;;;5071427;28;20274;-76
2021/06/24 10:17:53;;;;;;;4.03;3.60;;;22.20;99.90;;;;;;5072971;28;20647;-77
2021/06/24 10:20:18;;;;;;;7.43;4.70;;;22.50;99.90;;;;;;5072705;28;20174;-76
2021/06/24 10:22:53;;;;;;;5.35;4.85;;;22.70;99.90;;;;;;5052893;28;20198;-76
2021/06/24 10:25:21;;;;;;;7.28;5.25;;;22.90;99.90;;;;;;5053179;28;20203;-75
2021/06/24 10:27:47;;;;;;;5.28;4.78;;;22.90;99.90;;;;;;5064167;28;20655;-75
2021/06/24 10:30:20;;;;;;;5.85;5.10;;;22.40;99.90;;;;;;5055032;28;20675;-76
2021/06/24 10:33:15;;;;;;;6.70;6.03;;;22.30;99.90;;;;;;5055814;28;20560;-77
2021/06/24 10:35:51;;;;;;;7.85;6.60;;;22.30;99.90;;;;;;5074072;28;20182;-77
2021/06/24 10:38:18;;;;;;;6.70;6.00;;;22.50;99.90;;;;;;5084767;28;20201;-76
2021/06/24 10:40:54;;;;;;;7.75;7.05;;;22.70;99.90;;;;;;5089253;28;20245;-76
2021/06/24 10:43:20;;;;;;;7.40;6.70;;;22.90;99.90;;;;;;5054562;28;20206;-77
2021/06/24 10:45:47;;;;;;;7.30;6.60;;;22.70;99.90;;;;;;5054009;28;20242;-77
2021/06/24 10:48:32;;;;;;;7.68;6.95;;;22.70;99.90;;;;;;5075068;28;20218;-77
2021/06/24 10:51:04;;;;;;;8.30;7.50;;;22.40;99.90;;;;;;5074912;28;20211;-76
2021/06/24 10:53:37;;;;;;;7.53;6.93;;;22.50;99.90;;;;;;5072731;28;20218;-77
2021/06/24 10:56:30;;;;;;;7.80;7.00;;;22.20;99.90;;;;;;5053959;28;20710;-77
2021/06/24 10:58:57;;;;;;;8.15;7.22;;;22.10;99.90;;;;;;5055274;28;20174;-76
2021/06/24 11:01:45;;;;;;;8.07;7.15;;;22.10;99.90;;;;;;5055497;28;20643;-76
2021/06/24 11:04:38;;;;;;;9.33;8.40;;;22.20;99.90;;;;;;5060273;28;20252;-77
2021/06/24 11:07:21;;;;;;;8.17;7.40;;;22.30;99.90;;;;;;5078730;28;20182;-76
2021/06/24 11:10:15;;;;;;;6.88;6.28;;;22.20;99.90;;;;;;5076212;28;20194;-77
2021/06/24 11:12:55;;;;;;;7.20;6.38;;;22.30;99.90;;;;;;5056973;28;20196;-77
2021/06/24 11:15:42;;;;;;;6.80;6.10;;;22.50;99.90;;;;;;5060698;28;20203;-76
2021/06/24 11:18:08;;;;;;;7.38;6.55;;;22.50;99.90;;;;;;5055800;28;20176;-76
2021/06/24 11:20:43;;;;;;;7.63;6.80;;;22.80;99.90;;;;;;5054954;28;20248;-75
2021/06/24 11:23:28;;;;;;;7.50;5.80;;;22.70;99.90;;;;;;5055646;28;20461;-76
2021/06/24 11:26:06;;;;;;;5.70;4.30;;;22.70;99.90;;;;;;5073125;28;20690;-75
2021/06/24 11:28:56;;;;;;;5.65;5.03;;;22.80;99.90;;;;;;5075229;28;20187;-76
2021/06/24 11:31:47;;;;;;;8.02;5.00;;;22.90;99.90;;;;;;5074945;28;20274;-76
2021/06/24 11:34:28;;;;;;;5.50;5.00;;;22.90;99.90;;;;;;5039201;28;20684;-76
2021/06/24 11:37:06;;;;;;;7.38;5.10;;;22.90;99.90;;;;;;5054954;28;20177;-74
2021/06/24 11:39:37;;;;;;;5.47;4.78;;;22.20;99.90;;;;;;5054705;28;20176;-77
2021/06/24 11:42:17;;;;;;;5.43;4.80;;;22.40;99.90;;;;;;5064786;28;20236;-76
2021/06/24 11:44:49;;;;;;;5.38;4.90;;;22.10;99.90;;;;;;5087399;22;20235;-71
2021/06/24 11:47:20;;;;;;;4.90;4.30;;;22.10;99.90;;;;;;5090465;28;20226;-72
2021/06/24 12:03:47;;;;;;;6.43;5.72;;;22.20;99.90;;;;;;5070254;28;20771;-72
2021/06/24 12:06:13;;;;;;;6.60;5.65;;;22.30;99.90;;;;;;5070131;28;20180;-72
2021/06/24 12:08:39;;;;;;;6.30;5.70;;;22.20;99.90;;;;;;5070030;28;20655;-71
2021/06/24 12:11:04;;;;;;;7.55;5.85;;;22.10;99.90;;;;;;5070166;28;20198;-72
2021/06/24 12:13:36;;;;;;;7.35;6.38;;;22.10;99.90;;;;;;5070017;28;20536;-72
2021/06/24 12:16:02;;;;;;;8.23;5.63;;;21.70;99.90;;;;;;5069962;28;20218;-72
2021/06/24 12:18:42;;;;;;;8.10;7.30;;;21.70;99.90;;;;;;5070246;28;20174;-72
2021/06/24 12:21:08;;;;;;;6.87;5.97;;;21.70;99.90;;;;;;5061765;28;20220;-72
2021/06/24 12:23:41;;;;;;;7.10;5.57;;;22.00;99.90;;;;;;5064809;28;20660;-72
2021/06/24 12:26:07;;;;;;;6.03;5.43;;;21.90;99.90;;;;;;5058006;28;20171;-73
2021/06/24 12:28:32;;;;;;;4.93;4.43;;;22.00;99.90;;;;;;5071066;28;20191;-71
2021/06/24 12:30:58;;;;;;;4.40;4.00;;;22.00;99.90;;;;;;5074097;28;20362;-72
2021/06/24 12:33:28;;;;;;;4.90;3.73;;;21.80;99.90;;;;;;5075081;28;20178;-70
2021/06/24 12:35:54;;;;;;;4.90;3.97;;;21.60;99.90;;;;;;5074564;28;20331;-72
2021/06/24 12:38:23;;;;;;;4.43;4.03;;;21.70;99.90;;;;;;5074472;28;20644;-72
2021/06/24 12:41:00;;;;;;;5.53;4.33;;;21.90;99.90;;;;;;5075707;28;20179;-71
2021/06/24 12:43:27;;;;;;;4.65;4.25;;;22.10;99.90;;;;;;5076057;28;20206;-73
2021/06/24 12:45:55;;;;;;;10.65;4.50;;;22.10;99.90;;;;;;5057437;28;20218;-72
2021/06/24 12:48:33;;;;;;;4.63;4.22;;;22.10;99.90;;;;;;5075244;28;20187;-72
2021/06/24 12:51:01;;;;;;;4.70;4.15;;;22.20;99.90;;;;;;5074528;28;20211;-71
2021/06/24 12:53:32;;;;;;;4.95;4.15;;;22.40;99.90;;;;;;5056578;28;20200;-71
2021/06/24 12:55:58;;;;;;;4.82;4.38;;;22.30;99.90;;;;;;5067198;28;20169;-72
2021/06/24 12:58:27;;;;;;;5.15;4.15;;;22.40;99.90;;;;;;5065923;28;20197;-71